Time;durP1;ratioP1;P1;durP2;ratioP2;P2;SDS_P1;SDS_P2;PMS_P1;PMS_P2;Temp;Humidity;BMP_temperature;BMP_pressure;BME280_temperature;BME280_humidity;BME280_pressure;Samples;Min_cycle;Max_cycle;Signal;HPM_P1;HPM_P2
2022/07/22 00:01:33;;;;;;;10.27;2.72;;;17.60;99.90;;;;;;5046531;28;20021;-69
2022/07/22 00:03:59;;;;;;;10.73;2.10;;;17.60;99.90;;;;;;5044863;28;20028;-68
2022/07/22 00:06:25;;;;;;;11.88;2.40;;;17.60;99.90;;;;;;5040709;28;20041;-69
2022/07/22 00:08:51;;;;;;;9.43;2.20;;;17.60;99.90;;;;;;5049547;28;20032;-69
2022/07/22 00:11:17;;;;;;;10.13;2.42;;;17.50;99.90;;;;;;5040958;28;20037;-69
2022/07/22 00:13:42;;;;;;;8.82;1.88;;;17.60;99.90;;;;;;5040853;28;20471;-69
2022/07/22 00:16:08;;;;;;;11.80;2.33;;;17.60;99.90;;;;;;5048367;28;20474;-69
2022/07/22 00:18:34;;;;;;;10.32;2.60;;;17.50;99.90;;;;;;5038107;28;20040;-69
2022/07/22 00:20:59;;;;;;;11.43;2.00;;;17.50;99.90;;;;;;5044652;28;20059;-70
2022/07/22 00:23:25;;;;;;;13.25;2.83;;;17.50;99.90;;;;;;5041894;28;20144;-69
2022/07/22 00:25:51;;;;;;;12.00;2.33;;;17.50;99.90;;;;;;5043040;28;20183;-70
2022/07/22 00:28:16;;;;;;;10.40;2.55;;;17.50;99.90;;;;;;5043503;28;20032;-70
2022/07/22 00:30:42;;;;;;;11.25;2.53;;;17.50;99.90;;;;;;5042386;28;20090;-70
2022/07/22 00:33:08;;;;;;;8.15;2.17;;;17.50;99.90;;;;;;5043488;28;20030;-70
2022/07/22 00:35:34;;;;;;;10.13;2.08;;;17.50;99.90;;;;;;5046262;28;20040;-69
2022/07/22 00:37:59;;;;;;;15.32;3.08;;;17.50;99.90;;;;;;5033816;28;20021;-68
2022/07/22 00:40:25;;;;;;;9.40;2.22;;;17.50;99.90;;;;;;5033350;28;20081;-69
2022/07/22 00:42:52;;;;;;;9.57;2.00;;;17.50;99.90;;;;;;5041138;28;20395;-69
2022/07/22 00:45:18;;;;;;;11.38;2.20;;;17.40;99.90;;;;;;5040577;28;20041;-69
2022/07/22 00:47:44;;;;;;;13.75;2.85;;;17.40;99.90;;;;;;5045147;28;20036;-69
2022/07/22 00:50:10;;;;;;;9.77;2.47;;;17.40;99.90;;;;;;5044530;28;20044;-68
2022/07/22 00:52:36;;;;;;;10.07;2.38;;;17.40;99.90;;;;;;5038225;28;20037;-68
2022/07/22 00:55:03;;;;;;;10.63;2.40;;;17.30;99.90;;;;;;5043702;28;20040;-70
2022/07/22 00:57:29;;;;;;;10.35;2.30;;;17.30;99.90;;;;;;5040489;28;20098;-69
2022/07/22 00:59:55;;;;;;;13.52;2.70;;;17.30;99.90;;;;;;5045756;28;20520;-69
2022/07/22 01:02:20;;;;;;;10.98;2.55;;;17.30;99.90;;;;;;5044286;28;20037;-68
2022/07/22 01:04:46;;;;;;;10.05;2.33;;;17.30;99.90;;;;;;5047679;28;20041;-68
2022/07/22 01:07:12;;;;;;;10.10;2.35;;;17.30;99.90;;;;;;5038791;28;20036;-70
2022/07/22 01:09:41;;;;;;;8.05;2.08;;;17.30;99.90;;;;;;5048714;28;20079;-68
2022/07/22 01:12:07;;;;;;;13.25;2.45;;;17.20;99.90;;;;;;5046720;28;20040;-68
2022/07/22 01:14:33;;;;;;;10.65;2.13;;;17.20;99.90;;;;;;5047428;28;20032;-69
2022/07/22 01:16:58;;;;;;;11.88;2.53;;;17.20;99.90;;;;;;5039872;28;20079;-69
2022/07/22 01:19:24;;;;;;;12.00;2.40;;;17.20;99.90;;;;;;5038269;28;20025;-70
2022/07/22 01:21:50;;;;;;;8.68;2.22;;;17.20;99.90;;;;;;5039899;28;20029;-69
2022/07/22 01:24:16;;;;;;;11.82;3.05;;;17.20;99.90;;;;;;5042799;28;20376;-69
2022/07/22 01:26:41;;;;;;;11.13;2.30;;;17.20;99.90;;;;;;5034025;28;20061;-69
2022/07/22 01:29:07;;;;;;;12.45;2.80;;;17.20;99.90;;;;;;5019563;28;20033;-68
2022/07/22 01:31:33;;;;;;;11.07;2.47;;;17.20;99.90;;;;;;5031933;28;20122;-69
2022/07/22 01:33:59;;;;;;;11.93;2.67;;;17.20;99.90;;;;;;5023348;28;20220;-69
2022/07/22 01:36:25;;;;;;;7.75;1.92;;;17.20;99.90;;;;;;5021135;28;20483;-69
2022/07/22 01:38:51;;;;;;;10.43;2.63;;;17.20;99.90;;;;;;5026994;28;20056;-69
2022/07/22 01:41:16;;;;;;;11.95;2.25;;;17.20;99.90;;;;;;5001406;28;20739;-70
2022/07/22 01:43:42;;;;;;;10.70;2.58;;;17.20;99.90;;;;;;5021634;28;20033;-69
2022/07/22 01:46:08;;;;;;;11.15;1.98;;;17.20;99.90;;;;;;5024555;28;20029;-70
2022/07/22 01:48:33;;;;;;;8.40;1.98;;;17.20;99.90;;;;;;5015202;28;20065;-70
2022/07/22 01:50:59;;;;;;;10.90;2.08;;;17.20;99.90;;;;;;5029850;28;20053;-69
2022/07/22 01:53:25;;;;;;;10.93;2.35;;;17.20;99.90;;;;;;5031979;28;20083;-69
2022/07/22 01:55:51;;;;;;;11.02;2.38;;;17.20;99.90;;;;;;5005024;28;20040;-69
2022/07/22 01:58:16;;;;;;;10.23;2.58;;;17.20;99.90;;;;;;5029739;28;20791;-69
2022/07/22 02:00:42;;;;;;;12.23;2.38;;;17.20;99.90;;;;;;5020427;28;20030;-69
2022/07/22 02:03:10;;;;;;;9.02;1.98;;;17.20;99.90;;;;;;5024999;28;20055;-69
2022/07/22 02:05:36;;;;;;;8.50;2.00;;;17.20;99.90;;;;;;5003169;28;20037;-70
2022/07/22 02:08:07;;;;;;;11.82;2.65;;;17.10;99.90;;;;;;5016304;28;20045;-69
2022/07/22 02:10:33;;;;;;;11.52;2.03;;;17.10;99.90;;;;;;5028779;28;20035;-68
2022/07/22 02:12:59;;;;;;;8.70;1.90;;;17.10;99.90;;;;;;5014087;28;20033;-69
2022/07/22 02:15:25;;;;;;;7.15;1.52;;;17.00;99.90;;;;;;5030011;28;20044;-68
2022/07/22 02:17:51;;;;;;;9.77;2.00;;;17.00;99.90;;;;;;5029938;28;20430;-69
2022/07/22 02:20:17;;;;;;;7.85;2.13;;;17.00;99.90;;;;;;5010080;28;20038;-69
2022/07/22 02:22:43;;;;;;;8.15;1.95;;;17.00;99.90;;;;;;5005480;28;20030;-68
2022/07/22 02:25:09;;;;;;;7.95;2.05;;;17.00;99.90;;;;;;5039491;28;20041;-68
2022/07/22 02:27:34;;;;;;;9.55;2.00;;;17.00;99.90;;;;;;5042498;28;20124;-72
2022/07/22 02:30:01;;;;;;;9.88;2.03;;;16.90;99.90;;;;;;5039796;28;20483;-69
2022/07/22 02:32:26;;;;;;;9.13;2.05;;;16.90;99.90;;;;;;5042137;28;20068;-69
2022/07/22 02:34:52;;;;;;;9.20;1.83;;;16.90;99.90;;;;;;5038039;28;20057;-69
2022/07/22 02:37:18;;;;;;;9.05;2.10;;;17.00;99.90;;;;;;5042138;28;20064;-70
2022/07/22 02:39:43;;;;;;;5.60;1.65;;;17.00;99.90;;;;;;5042113;28;20033;-70
2022/07/22 02:42:09;;;;;;;8.93;1.80;;;17.00;99.90;;;;;;5038914;28;20040;-69
2022/07/22 02:44:35;;;;;;;9.88;2.13;;;17.00;99.90;;;;;;5040869;28;20033;-70
2022/07/22 02:47:01;;;;;;;11.73;1.90;;;17.00;99.90;;;;;;5037835;28;20025;-70
2022/07/22 02:49:26;;;;;;;8.57;2.00;;;17.00;99.90;;;;;;5042338;28;20548;-69
2022/07/22 02:51:52;;;;;;;8.52;1.70;;;17.00;99.90;;;;;;5042625;28;20025;-69
2022/07/22 02:54:18;;;;;;;10.55;2.20;;;17.00;99.90;;;;;;5039077;28;20033;-69
2022/07/22 02:56:43;;;;;;;8.68;2.10;;;17.00;99.90;;;;;;5042809;28;20067;-70
2022/07/22 02:59:09;;;;;;;9.43;2.30;;;17.00;99.90;;;;;;5036422;28;20501;-70
2022/07/22 03:01:35;;;;;;;16.27;2.58;;;17.00;99.90;;;;;;5033906;28;20666;-69
2022/07/22 03:04:00;;;;;;;10.57;2.13;;;16.90;99.90;;;;;;5041829;28;20037;-70
2022/07/22 03:06:26;;;;;;;9.20;2.22;;;16.90;99.90;;;;;;5048003;28;20059;-69
2022/07/22 03:08:52;;;;;;;10.55;2.38;;;16.90;99.90;;;;;;5046416;28;20037;-69
2022/07/22 03:11:17;;;;;;;10.20;2.25;;;16.90;99.90;;;;;;5043387;28;20394;-69
2022/07/22 03:13:43;;;;;;;9.93;2.38;;;16.90;99.90;;;;;;5041914;28;20043;-70
2022/07/22 03:16:09;;;;;;;8.52;1.95;;;16.90;99.90;;;;;;5048367;28;20037;-70
2022/07/22 03:18:35;;;;;;;10.73;2.20;;;16.90;99.90;;;;;;5047466;28;20036;-69
2022/07/22 03:21:01;;;;;;;8.13;2.10;;;16.90;99.90;;;;;;5046133;28;20394;-69
2022/07/22 03:23:26;;;;;;;11.20;1.90;;;16.90;99.90;;;;;;5040412;28;20052;-69
2022/07/22 03:25:52;;;;;;;9.30;1.70;;;16.90;99.90;;;;;;5047179;28;20087;-69
2022/07/22 03:28:18;;;;;;;9.55;2.00;;;16.90;99.90;;;;;;5049334;28;20613;-70
2022/07/22 03:30:44;;;;;;;6.95;1.80;;;16.90;99.90;;;;;;5040552;28;20330;-69
2022/07/22 03:33:09;;;;;;;10.90;1.90;;;16.90;99.90;;;;;;5044083;28;20037;-69
2022/07/22 03:35:35;;;;;;;6.97;1.60;;;16.90;99.90;;;;;;5045607;28;20033;-69
2022/07/22 03:38:02;;;;;;;9.80;2.00;;;16.80;99.90;;;;;;5045957;28;20029;-69
2022/07/22 03:40:27;;;;;;;9.30;2.00;;;16.80;99.90;;;;;;5044991;28;20029;-69
2022/07/22 03:42:53;;;;;;;10.60;2.33;;;16.80;99.90;;;;;;5045904;28;20150;-68
2022/07/22 03:45:19;;;;;;;7.50;1.73;;;16.80;99.90;;;;;;5044238;28;20068;-69
2022/07/22 03:47:44;;;;;;;8.15;1.70;;;16.80;99.90;;;;;;5042028;28;20029;-69
2022/07/22 03:50:10;;;;;;;9.75;2.10;;;16.80;99.90;;;;;;5047430;28;20716;-69
2022/07/22 03:52:36;;;;;;;13.15;2.00;;;16.80;99.90;;;;;;5045684;28;20037;-68
2022/07/22 03:55:02;;;;;;;7.47;1.90;;;16.80;99.90;;;;;;5047655;28;20135;-68
2022/07/22 03:57:29;;;;;;;6.20;1.70;;;16.70;99.90;;;;;;5041865;28;20040;-68
2022/07/22 03:59:54;;;;;;;13.85;2.55;;;16.70;99.90;;;;;;5041055;28;20063;-68
2022/07/22 04:02:20;;;;;;;8.95;2.22;;;16.70;99.90;;;;;;5042363;28;20055;-68
2022/07/22 04:04:45;;;;;;;6.90;1.75;;;16.70;99.90;;;;;;5041492;28;20029;-68
2022/07/22 04:07:11;;;;;;;8.32;1.70;;;16.60;99.90;;;;;;5044498;28;20405;-69
2022/07/22 04:09:37;;;;;;;10.63;2.35;;;16.60;99.90;;;;;;5048746;28;20084;-69
2022/07/22 04:12:03;;;;;;;7.95;2.05;;;16.70;99.90;;;;;;5043222;28;20031;-69
2022/07/22 04:14:29;;;;;;;10.68;2.22;;;16.60;99.90;;;;;;5039894;28;20116;-70
2022/07/22 04:16:54;;;;;;;10.27;1.98;;;16.60;99.90;;;;;;5039504;28;20140;-69
2022/07/22 04:19:20;;;;;;;10.32;1.80;;;16.50;99.90;;;;;;5048940;28;20521;-68
2022/07/22 04:21:46;;;;;;;11.90;1.92;;;16.60;99.90;;;;;;5049361;28;20874;-68
2022/07/22 04:24:11;;;;;;;10.95;1.95;;;16.50;99.90;;;;;;5048485;28;20465;-68
2022/07/22 04:26:37;;;;;;;8.45;2.20;;;16.50;99.90;;;;;;5049953;28;20053;-68
2022/07/22 04:29:04;;;;;;;9.07;2.00;;;16.50;99.90;;;;;;5039343;28;20038;-69
2022/07/22 04:31:30;;;;;;;7.55;2.00;;;16.50;99.90;;;;;;5028658;28;20047;-68
2022/07/22 04:33:56;;;;;;;8.75;2.05;;;16.50;99.90;;;;;;5045052;28;20033;-69
2022/07/22 04:36:23;;;;;;;12.25;2.05;;;16.50;99.90;;;;;;5049055;28;20033;-69
2022/07/22 04:38:49;;;;;;;9.57;1.90;;;16.50;99.90;;;;;;5040923;28;20057;-68
2022/07/22 04:41:15;;;;;;;8.95;1.67;;;16.50;99.90;;;;;;5046525;28;20560;-68
2022/07/22 04:43:41;;;;;;;9.43;2.00;;;16.50;99.90;;;;;;5043697;28;20123;-69
2022/07/22 04:46:07;;;;;;;10.02;1.80;;;16.40;99.90;;;;;;5044011;28;20104;-69
2022/07/22 04:48:32;;;;;;;7.95;2.20;;;16.50;99.90;;;;;;5040811;28;20111;-69
2022/07/22 04:51:02;;;;;;;9.70;1.98;;;16.50;99.90;;;;;;5047049;28;20035;-69
2022/07/22 04:53:28;;;;;;;6.88;1.65;;;16.50;99.90;;;;;;5045386;28;20403;-69
2022/07/22 04:55:54;;;;;;;9.60;2.00;;;16.50;99.90;;;;;;5035425;28;20398;-69
2022/07/22 04:58:19;;;;;;;7.43;1.70;;;16.50;99.90;;;;;;5044566;28;20037;-70
2022/07/22 05:00:46;;;;;;;8.02;1.80;;;16.50;99.90;;;;;;5042016;28;20029;-69
2022/07/22 05:03:12;;;;;;;8.20;2.10;;;16.50;99.90;;;;;;5039142;28;20513;-69
2022/07/22 05:05:38;;;;;;;8.98;2.08;;;16.50;99.90;;;;;;5044522;28;20039;-70
2022/07/22 05:08:04;;;;;;;7.15;2.33;;;16.50;99.90;;;;;;5044127;28;20446;-70
2022/07/22 05:10:30;;;;;;;11.18;2.00;;;16.50;99.90;;;;;;5043176;28;20025;-69
2022/07/22 05:12:55;;;;;;;7.40;1.80;;;16.50;99.90;;;;;;5036671;28;20112;-69
2022/07/22 05:15:21;;;;;;;9.68;2.03;;;16.60;99.90;;;;;;5048595;28;20399;-69
2022/07/22 05:17:47;;;;;;;11.10;2.55;;;16.60;99.90;;;;;;5039365;28;20036;-69
2022/07/22 05:20:13;;;;;;;7.63;2.08;;;16.70;99.90;;;;;;5046195;28;20037;-69
2022/07/22 05:22:38;;;;;;;8.65;1.90;;;16.70;99.90;;;;;;5046028;28;20127;-69
2022/07/22 05:25:04;;;;;;;7.80;1.80;;;16.70;99.90;;;;;;5046296;28;20043;-69
2022/07/22 05:27:30;;;;;;;7.00;2.03;;;16.80;99.90;;;;;;5047373;28;20057;-70
2022/07/22 05:29:57;;;;;;;7.40;2.13;;;16.80;99.90;;;;;;5047126;28;20111;-69
2022/07/22 05:32:22;;;;;;;8.73;2.40;;;16.90;99.90;;;;;;5048258;28;20112;-69
2022/07/22 05:34:48;;;;;;;8.73;2.13;;;16.90;99.90;;;;;;5048420;28;20115;-69
2022/07/22 05:37:15;;;;;;;10.98;2.25;;;16.90;99.90;;;;;;5048162;28;20450;-69
2022/07/22 05:39:42;;;;;;;7.32;1.63;;;17.00;99.90;;;;;;5048245;28;20394;-68
2022/07/22 05:42:08;;;;;;;9.18;2.50;;;17.10;99.90;;;;;;5045904;28;20097;-68
2022/07/22 05:44:33;;;;;;;8.27;1.92;;;17.10;99.90;;;;;;5047801;28;20466;-69
2022/07/22 05:46:59;;;;;;;7.43;2.03;;;17.10;99.90;;;;;;5047576;28;20450;-69
2022/07/22 05:49:26;;;;;;;7.45;1.85;;;17.20;99.90;;;;;;5047771;28;20039;-69
2022/07/22 05:51:52;;;;;;;9.07;2.55;;;17.20;99.90;;;;;;5046574;28;20085;-69
2022/07/22 05:54:18;;;;;;;11.13;2.17;;;17.30;99.90;;;;;;5044243;28;20029;-69
2022/07/22 05:56:44;;;;;;;7.40;1.80;;;17.40;99.90;;;;;;5040969;28;20032;-69
2022/07/22 05:59:10;;;;;;;8.98;2.00;;;17.40;99.90;;;;;;5043111;28;20055;-69
2022/07/22 06:01:35;;;;;;;9.13;1.70;;;17.40;99.90;;;;;;5035872;28;20028;-69
2022/07/22 06:04:01;;;;;;;7.32;1.63;;;17.50;99.90;;;;;;5046083;28;20035;-69
2022/07/22 06:06:27;;;;;;;11.80;2.25;;;17.50;99.90;;;;;;5043140;28;20695;-69
2022/07/22 06:08:52;;;;;;;9.00;2.25;;;17.60;99.90;;;;;;5041248;28;20497;-69
2022/07/22 06:11:18;;;;;;;8.23;1.85;;;17.60;99.90;;;;;;5036522;28;20025;-69
2022/07/22 06:13:44;;;;;;;10.90;2.13;;;17.60;99.90;;;;;;5029226;28;20053;-69
2022/07/22 06:16:09;;;;;;;8.18;2.05;;;17.70;99.90;;;;;;5042058;28;21023;-68
2022/07/22 06:18:35;;;;;;;7.32;1.80;;;17.70;99.90;;;;;;5046303;28;20086;-70
2022/07/22 06:21:01;;;;;;;8.57;1.90;;;17.70;99.90;;;;;;5042663;28;20029;-70
2022/07/22 06:23:27;;;;;;;7.53;1.52;;;17.80;99.90;;;;;;5046237;28;20032;-69
2022/07/22 06:25:52;;;;;;;6.57;1.92;;;17.90;99.90;;;;;;5037346;28;20111;-69
2022/07/22 06:28:18;;;;;;;11.52;2.15;;;18.00;99.90;;;;;;5041110;28;20068;-70
2022/07/22 06:30:44;;;;;;;10.68;2.15;;;18.00;99.90;;;;;;5040978;28;20029;-69
2022/07/22 06:33:09;;;;;;;9.77;2.35;;;18.10;99.90;;;;;;5045797;28;20505;-70
2022/07/22 06:35:38;;;;;;;8.75;2.00;;;18.10;99.90;;;;;;5036747;28;20042;-70
2022/07/22 06:38:04;;;;;;;12.85;2.95;;;18.10;99.90;;;;;;5047112;28;20095;-69
2022/07/22 06:40:29;;;;;;;8.43;2.42;;;18.20;99.90;;;;;;5044237;28;20116;-68
2022/07/22 06:42:55;;;;;;;7.55;1.95;;;18.20;99.90;;;;;;5041447;28;20064;-69
2022/07/22 06:45:21;;;;;;;10.15;2.00;;;18.30;99.90;;;;;;5044989;28;20029;-69
2022/07/22 06:47:47;;;;;;;8.52;1.90;;;18.30;99.90;;;;;;5043845;28;20043;-69
2022/07/22 06:50:13;;;;;;;8.48;2.00;;;18.40;99.90;;;;;;5044266;28;20023;-69
2022/07/22 06:52:40;;;;;;;10.23;2.20;;;18.40;99.90;;;;;;5046700;28;20465;-69
2022/07/22 06:55:07;;;;;;;9.70;2.15;;;18.40;99.90;;;;;;5044596;28;20044;-69
2022/07/22 06:57:32;;;;;;;9.07;2.00;;;18.40;99.90;;;;;;5045293;28;20028;-70
2022/07/22 06:59:59;;;;;;;11.02;2.10;;;18.30;99.90;;;;;;5042300;28;20037;-69
2022/07/22 07:02:24;;;;;;;7.80;2.20;;;18.40;99.90;;;;;;5042746;28;20395;-69
2022/07/22 07:04:50;;;;;;;8.30;2.30;;;18.40;99.90;;;;;;5038993;28;20041;-69
2022/07/22 07:07:15;;;;;;;9.48;2.13;;;18.30;99.90;;;;;;5035629;28;20048;-69
2022/07/22 07:09:41;;;;;;;11.98;2.72;;;18.40;99.90;;;;;;5033936;28;20629;-74
2022/07/22 07:12:07;;;;;;;11.43;2.25;;;18.50;99.90;;;;;;5037357;28;20079;-74
2022/07/22 07:14:33;;;;;;;10.48;2.45;;;18.60;99.90;;;;;;5040693;28;20037;-75
2022/07/22 07:16:58;;;;;;;10.32;2.60;;;18.80;99.90;;;;;;5041715;28;20029;-74
2022/07/22 07:19:24;;;;;;;6.00;1.80;;;19.00;99.90;;;;;;5039626;28;20032;-76
2022/07/22 07:21:50;;;;;;;8.20;1.92;;;19.20;99.90;;;;;;5051304;28;20036;-76
2022/07/22 07:24:15;;;;;;;8.07;2.05;;;19.40;99.90;;;;;;5052330;28;20099;-75
2022/07/22 07:26:41;;;;;;;10.65;2.08;;;19.60;99.90;;;;;;5053251;28;20052;-75
2022/07/22 07:29:07;;;;;;;11.30;2.25;;;19.70;99.90;;;;;;5041035;28;20059;-74
2022/07/22 07:31:32;;;;;;;9.32;2.13;;;19.70;99.90;;;;;;5053093;28;20025;-70
2022/07/22 07:33:58;;;;;;;10.55;2.30;;;19.60;99.90;;;;;;5041141;28;20056;-71
2022/07/22 07:36:24;;;;;;;7.95;2.17;;;19.50;99.90;;;;;;5047501;28;20094;-72
2022/07/22 07:38:50;;;;;;;9.38;2.13;;;19.40;99.90;;;;;;5047911;28;20040;-71
2022/07/22 07:41:17;;;;;;;10.43;2.30;;;19.30;99.90;;;;;;5049106;28;20032;-72
2022/07/22 07:43:43;;;;;;;8.88;2.00;;;19.20;99.90;;;;;;5059873;28;20037;-74
2022/07/22 07:46:09;;;;;;;9.10;2.05;;;19.10;99.90;;;;;;5054934;28;20037;-72
2022/07/22 07:48:34;;;;;;;10.10;2.10;;;19.10;99.90;;;;;;5049061;28;20054;-68
2022/07/22 07:51:00;;;;;;;9.85;2.25;;;19.20;99.90;;;;;;5046595;28;20068;-68
2022/07/22 07:53:26;;;;;;;9.40;2.28;;;19.30;99.90;;;;;;5050935;28;20108;-68
2022/07/22 07:55:52;;;;;;;7.57;2.25;;;19.30;99.90;;;;;;5036526;28;20033;-66
2022/07/22 07:58:18;;;;;;;9.48;2.35;;;19.40;99.90;;;;;;5039301;28;20029;-67
2022/07/22 08:00:44;;;;;;;8.00;2.05;;;19.30;99.90;;;;;;5049464;28;20108;-67
2022/07/22 08:03:10;;;;;;;9.15;2.60;;;19.20;99.90;;;;;;5050382;28;20033;-67
2022/07/22 08:05:38;;;;;;;8.82;1.80;;;19.20;99.90;;;;;;5050956;28;20048;-67
2022/07/22 08:08:05;;;;;;;10.63;2.38;;;19.20;99.90;;;;;;5038756;28;20538;-73
2022/07/22 08:10:31;;;;;;;9.20;1.95;;;19.20;99.90;;;;;;5041300;28;20030;-74
2022/07/22 08:12:58;;;;;;;10.23;2.40;;;19.30;99.90;;;;;;5045970;28;20033;-74
2022/07/22 08:15:24;;;;;;;11.40;2.00;;;19.20;99.90;;;;;;5049317;28;20472;-75
2022/07/22 08:17:50;;;;;;;8.38;2.20;;;19.20;99.90;;;;;;5049262;28;20037;-75
2022/07/22 08:20:15;;;;;;;9.73;2.50;;;19.10;99.90;;;;;;5050850;28;20033;-73
2022/07/22 08:22:41;;;;;;;10.10;2.67;;;19.20;99.90;;;;;;5050607;28;20474;-73
2022/07/22 08:25:08;;;;;;;7.32;1.75;;;19.20;99.90;;;;;;5049438;28;20041;-72
2022/07/22 08:27:34;;;;;;;8.43;2.15;;;19.20;99.90;;;;;;5043382;28;20088;-73
2022/07/22 08:29:59;;;;;;;8.63;2.08;;;19.40;99.90;;;;;;5050415;28;20064;-74
2022/07/22 08:32:25;;;;;;;6.05;1.77;;;19.50;99.90;;;;;;5047207;28;20039;-73
2022/07/22 08:34:51;;;;;;;10.90;2.30;;;19.60;99.90;;;;;;5047131;28;20534;-73
2022/07/22 08:37:17;;;;;;;8.85;2.10;;;19.90;99.90;;;;;;5042950;28;20076;-73
2022/07/22 08:39:43;;;;;;;5.43;1.65;;;20.10;99.90;;;;;;5042817;28;20060;-74
2022/07/22 08:42:09;;;;;;;8.13;1.90;;;20.30;99.90;;;;;;5035277;28;20676;-74
2022/07/22 08:44:34;;;;;;;9.93;2.20;;;20.40;99.90;;;;;;5052337;28;20037;-75
2022/07/22 08:47:01;;;;;;;8.70;2.22;;;20.50;99.90;;;;;;5050193;28;20036;-76
2022/07/22 08:49:27;;;;;;;10.00;2.08;;;20.60;99.90;;;;;;5048748;28;20032;-75
2022/07/22 08:51:53;;;;;;;6.50;1.60;;;20.70;99.90;;;;;;5046426;28;20466;-75
2022/07/22 08:54:19;;;;;;;9.23;2.20;;;20.80;99.90;;;;;;5049890;28;20040;-77
2022/07/22 08:56:50;;;;;;;9.50;2.08;;;21.00;99.90;;;;;;5050161;28;20094;-74
2022/07/22 08:59:16;;;;;;;6.70;1.70;;;21.20;99.90;;;;;;5047923;28;20035;-76
2022/07/22 09:02:10;;;;;;;7.55;1.80;;;21.40;99.90;;;;;;5047545;28;20037;-76
2022/07/22 09:04:52;;;;;;;10.13;1.90;;;21.50;99.90;;;;;;5034388;28;20037;-76
2022/07/22 09:07:30;;;;;;;6.82;1.88;;;21.50;99.90;;;;;;5031750;28;20045;-77
2022/07/22 09:09:57;;;;;;;9.45;2.30;;;21.40;99.90;;;;;;5039027;28;20723;-77
2022/07/22 09:12:23;;;;;;;7.95;2.05;;;21.30;99.90;;;;;;5044894;28;20521;-73
2022/07/22 09:14:56;;;;;;;7.88;1.90;;;21.30;99.90;;;;;;5044065;28;20036;-75
2022/07/22 09:17:37;;;;;;;8.55;2.03;;;21.30;99.90;;;;;;5048092;28;20079;-76
2022/07/22 09:20:17;;;;;;;7.80;2.15;;;21.30;99.90;;;;;;5044855;28;20029;-71
2022/07/22 09:22:45;;;;;;;6.47;1.98;;;21.40;99.90;;;;;;5036847;28;20064;-69
2022/07/22 09:25:36;;;;;;;5.53;1.70;;;21.50;99.90;;;;;;5029377;28;20055;-71
2022/07/22 09:28:05;;;;;;;6.15;2.00;;;21.50;99.80;;;;;;5014794;28;20045;-69
2022/07/22 09:30:31;;;;;;;6.80;2.10;;;21.30;99.90;;;;;;5040361;28;20029;-72
2022/07/22 09:32:57;;;;;;;7.28;2.00;;;21.30;99.90;;;;;;5040301;28;20047;-71
2022/07/22 09:35:24;;;;;;;6.22;2.08;;;21.30;99.90;;;;;;5031454;28;20105;-72
2022/07/22 09:37:58;;;;;;;7.57;2.25;;;21.40;99.90;;;;;;5026375;28;20033;-70
2022/07/22 09:40:27;;;;;;;7.18;1.90;;;21.50;99.50;;;;;;5048142;28;20037;-73
2022/07/22 09:43:05;;;;;;;7.15;2.05;;;21.70;99.30;;;;;;5030908;28;20029;-71
2022/07/22 09:45:33;;;;;;;10.80;2.40;;;21.90;99.10;;;;;;5046995;28;20095;-71
2022/07/22 09:48:00;;;;;;;9.88;1.88;;;21.90;98.60;;;;;;5036799;28;20033;-70
2022/07/22 09:50:33;;;;;;;6.35;1.95;;;21.80;98.50;;;;;;5023989;28;20072;-70
2022/07/22 09:53:00;;;;;;;8.25;2.38;;;21.70;98.90;;;;;;5025340;28;20041;-71
2022/07/22 09:55:28;;;;;;;7.50;2.05;;;21.70;99.20;;;;;;5017269;28;20039;-70
2022/07/22 09:57:56;;;;;;;6.30;2.00;;;22.00;99.10;;;;;;5038095;28;20071;-70
2022/07/22 10:00:24;;;;;;;8.48;2.33;;;22.30;98.00;;;;;;5045663;28;20033;-70
2022/07/22 10:02:51;;;;;;;7.60;2.10;;;22.50;98.00;;;;;;5015444;28;20036;-69
2022/07/22 10:05:20;;;;;;;7.43;2.35;;;22.60;97.20;;;;;;5039097;28;20112;-71
2022/07/22 10:07:47;;;;;;;8.15;2.03;;;22.60;97.50;;;;;;5036760;28;20466;-70
2022/07/22 10:10:19;;;;;;;7.88;2.08;;;22.60;97.50;;;;;;5033529;28;20087;-70
2022/07/22 10:12:48;;;;;;;6.97;2.00;;;22.70;96.80;;;;;;5043149;28;20037;-71
2022/07/22 10:15:14;;;;;;;7.68;1.95;;;22.70;96.80;;;;;;5022325;28;20040;-70
2022/07/22 10:17:50;;;;;;;10.05;2.10;;;22.70;96.70;;;;;;5026424;28;20037;-70
2022/07/22 10:20:21;;;;;;;7.72;2.17;;;22.50;96.50;;;;;;5021479;28;20033;-69
2022/07/22 10:22:50;;;;;;;9.30;2.17;;;22.40;96.90;;;;;;5029392;28;20504;-70
2022/07/22 10:25:18;;;;;;;;;;;22.30;97.20;;;;;;5048666;28;20037;-70
2022/07/22 10:27:44;;;;;;;8.15;2.05;;;22.10;97.20;;;;;;5048498;28;19924;-71
2022/07/22 10:30:10;;;;;;;6.75;1.83;;;22.00;97.30;;;;;;5037506;28;20033;-71
2022/07/22 10:32:36;;;;;;;6.57;2.08;;;21.90;97.60;;;;;;5039976;28;20040;-70
2022/07/22 10:35:03;;;;;;;7.72;2.60;;;21.80;98.10;;;;;;5046496;28;20033;-71
2022/07/22 10:37:34;;;;;;;7.25;2.17;;;21.60;98.30;;;;;;5047774;28;20635;-70
2022/07/22 10:40:24;;;;;;;7.60;2.03;;;21.40;98.00;;;;;;5032408;28;20039;-70
2022/07/22 10:43:03;;;;;;;5.10;1.88;;;21.20;99.00;;;;;;5030808;28;20029;-71
2022/07/22 10:45:38;;;;;;;6.70;2.03;;;21.10;99.10;;;;;;5041253;28;20039;-71
2022/07/22 10:48:07;;;;;;;7.47;2.15;;;21.00;99.40;;;;;;5035595;28;20033;-71
2022/07/22 10:50:39;;;;;;;;;;;21.00;99.60;;;;;;5034012;28;20498;-71
2022/07/22 10:53:09;;;;;;;7.53;2.00;;;20.90;99.70;;;;;;5036664;28;20419;-70
2022/07/22 10:55:35;;;;;;;8.70;2.65;;;20.90;99.80;;;;;;5025205;28;20037;-72
2022/07/22 10:58:33;;;;;;;7.63;2.40;;;20.80;99.90;;;;;;5046358;28;20787;-71
2022/07/22 11:01:06;;;;;;;11.00;2.45;;;20.70;99.90;;;;;;5045806;28;20067;-71
2022/07/22 11:03:35;;;;;;;6.95;2.60;;;20.70;99.90;;;;;;5047900;28;20044;-70
2022/07/22 11:06:32;;;;;;;7.13;2.00;;;20.60;99.90;;;;;;5039088;28;20069;-72
2022/07/22 11:09:01;;;;;;;9.00;2.33;;;20.60;99.90;;;;;;5001155;28;20477;-69
2022/07/22 11:11:33;;;;;;;9.18;2.80;;;20.60;99.90;;;;;;5047625;28;20078;-71
2022/07/22 11:13:58;;;;;;;5.95;2.08;;;20.60;99.90;;;;;;5039409;28;20521;-71
2022/07/22 11:16:26;;;;;;;7.60;2.75;;;20.60;99.90;;;;;;5043100;28;20069;-71
2022/07/22 11:19:02;;;;;;;9.02;2.22;;;20.60;99.90;;;;;;5028227;28;20041;-72
2022/07/22 11:21:30;;;;;;;6.32;2.20;;;20.50;99.90;;;;;;5039291;28;20142;-71
2022/07/22 11:23:59;;;;;;;7.20;2.45;;;20.40;99.90;;;;;;5037050;28;20037;-70
2022/07/22 11:26:42;;;;;;;10.23;2.78;;;20.40;99.90;;;;;;5041118;28;20064;-70
2022/07/22 11:29:10;;;;;;;10.55;3.30;;;20.30;99.90;;;;;;5045608;28;20040;-70
2022/07/22 11:31:38;;;;;;;9.82;3.03;;;20.10;99.90;;;;;;5032941;28;20123;-69
2022/07/22 11:34:12;;;;;;;10.67;3.53;;;19.90;99.90;;;;;;5032278;28;20462;-70
2022/07/22 11:36:40;;;;;;;7.05;2.67;;;19.70;99.90;;;;;;5041647;28;20040;-70
2022/07/22 11:39:07;;;;;;;10.57;3.10;;;19.50;99.90;;;;;;5032204;28;20386;-70
2022/07/22 11:41:34;;;;;;;15.38;3.20;;;19.40;99.90;;;;;;5043932;28;20029;-70
2022/07/22 11:43:59;;;;;;;9.88;3.10;;;19.20;99.90;;;;;;5039981;28;20021;-70
2022/07/22 11:46:26;;;;;;;10.20;3.42;;;19.20;99.90;;;;;;5034800;28;20064;-71
2022/07/22 11:48:54;;;;;;;6.30;2.72;;;19.10;99.90;;;;;;5039577;28;20056;-70
2022/07/22 11:51:20;;;;;;;13.07;3.65;;;19.10;99.90;;;;;;5038233;28;20376;-70
2022/07/22 11:53:45;;;;;;;11.73;3.42;;;19.10;99.90;;;;;;5047784;28;20371;-69
2022/07/22 11:56:12;;;;;;;11.55;3.30;;;19.10;99.90;;;;;;5048376;28;20044;-69
2022/07/22 11:58:39;;;;;;;10.05;3.10;;;19.20;99.90;;;;;;5046554;28;20044;-70
2022/07/22 12:01:10;;;;;;;10.52;3.28;;;19.30;99.90;;;;;;5046030;28;20025;-69
2022/07/22 12:03:38;;;;;;;9.95;3.08;;;19.40;99.90;;;;;;5043596;28;20044;-73
2022/07/22 12:06:06;;;;;;;11.18;3.08;;;19.40;99.90;;;;;;5037212;28;20041;-74
2022/07/22 12:08:33;;;;;;;10.82;3.30;;;19.50;99.90;;;;;;5039350;28;20098;-74
2022/07/22 12:10:59;;;;;;;7.25;2.60;;;19.50;99.90;;;;;;5046881;28;20083;-74
2022/07/22 12:13:32;;;;;;;11.05;2.70;;;19.50;99.90;;;;;;5046770;28;20024;-74
2022/07/22 12:15:58;;;;;;;11.73;2.65;;;19.60;99.90;;;;;;5042972;28;20060;-73
2022/07/22 12:18:26;;;;;;;8.73;2.75;;;19.70;99.90;;;;;;5042589;28;20040;-75
2022/07/22 12:20:53;;;;;;;10.13;2.42;;;19.80;99.90;;;;;;5047492;28;20124;-73
2022/07/22 12:23:21;;;;;;;12.32;2.85;;;20.00;99.90;;;;;;5042946;28;20029;-75
2022/07/22 12:25:58;;;;;;;8.30;2.53;;;20.20;99.90;;;;;;5042409;28;20083;-73
2022/07/22 12:28:25;;;;;;;6.65;2.45;;;20.30;99.90;;;;;;5042403;28;20033;-74
2022/07/22 12:30:55;;;;;;;8.25;2.35;;;20.40;99.90;;;;;;5043076;28;20056;-74
2022/07/22 12:33:22;;;;;;;7.25;2.40;;;20.50;99.90;;;;;;5038119;28;20037;-75
2022/07/22 12:36:07;;;;;;;6.60;1.85;;;20.50;99.90;;;;;;5039170;28;20383;-75
2022/07/22 12:38:33;;;;;;;8.93;2.20;;;20.50;99.90;;;;;;5042715;28;20032;-74
2022/07/22 12:41:30;;;;;;;7.93;2.35;;;20.60;99.90;;;;;;5046239;28;20029;-73
2022/07/22 12:43:56;;;;;;;12.82;2.67;;;20.70;99.90;;;;;;5042135;28;20037;-74